UAL195 VOMM-VOHS
Flight info
| Callsign | UAL195 |
|---|---|
| Flight time | 0h 49m |
| Altitude | 34000 |
| Route | KAMGU2B KAMGU W20 LEDOB LEDOB6 |
| Aircraft | B764/H-SDE3FGHIM3RWXY/LB1 |
Departure
| Time | 2026-04-23 11:52 |
|---|---|
| Airport | Chennai International Airport (VOMM) |
Arrival
| Time | 2026-04-23 12:41 |
|---|---|
| Airport | Rajiv Gandhi International Airport (VOHS) |
| Time | Latitude | Longitude | Altitude | Speed | Heading |
|---|---|---|---|---|---|
| 2026-04-23 11:28 | 12.98275 | 80.16122 | 65 ft | 0 kts | 159° |
| 2026-04-23 11:40 | 12.98284 | 80.16118 | 65 ft | 2 kts | 158° |
| 2026-04-23 11:40 | 12.98297 | 80.16112 | 65 ft | 2 kts | 159° |
| 2026-04-23 11:41 | 12.98312 | 80.16108 | 65 ft | 2 kts | 173° |
| 2026-04-23 11:41 | 12.98326 | 80.16108 | 65 ft | 2 kts | 191° |
| 2026-04-23 11:41 | 12.98340 | 80.16112 | 65 ft | 2 kts | 207° |
| 2026-04-23 11:41 | 12.98352 | 80.16121 | 65 ft | 2 kts | 224° |
| 2026-04-23 11:42 | 12.98361 | 80.16132 | 65 ft | 2 kts | 240° |
| 2026-04-23 11:42 | 12.98365 | 80.16140 | 65 ft | 1 kts | 251° |
| 2026-04-23 11:42 | 12.98366 | 80.16144 | 65 ft | 0 kts | 250° |
| 2026-04-23 11:44 | 12.98366 | 80.16143 | 65 ft | 1 kts | 250° |
| 2026-04-23 11:44 | 12.98356 | 80.16116 | 65 ft | 6 kts | 249° |
| 2026-04-23 11:45 | 12.98336 | 80.16062 | 65 ft | 9 kts | 249° |
| 2026-04-23 11:45 | 12.98308 | 80.15990 | 65 ft | 12 kts | 248° |
| 2026-04-23 11:45 | 12.98295 | 80.15899 | 65 ft | 13 kts | 279° |
| 2026-04-23 11:45 | 12.98319 | 80.15803 | 65 ft | 13 kts | 285° |
| 2026-04-23 11:46 | 12.98344 | 80.15714 | 65 ft | 12 kts | 285° |
| 2026-04-23 11:46 | 12.98366 | 80.15632 | 65 ft | 11 kts | 285° |
| 2026-04-23 11:46 | 12.98386 | 80.15558 | 65 ft | 10 kts | 285° |
| 2026-04-23 11:46 | 12.98408 | 80.15487 | 65 ft | 10 kts | 294° |
| 2026-04-23 11:47 | 12.98446 | 80.15465 | 65 ft | 6 kts | 358° |
| 2026-04-23 11:47 | 12.98480 | 80.15481 | 65 ft | 6 kts | 46° |
| 2026-04-23 11:47 | 12.98506 | 80.15534 | 65 ft | 11 kts | 68° |
| 2026-04-23 11:47 | 12.98551 | 80.15657 | 65 ft | 26 kts | 70° |
| 2026-04-23 11:48 | 12.98644 | 80.15902 | 65 ft | 48 kts | 69° |
| 2026-04-23 11:48 | 12.98792 | 80.16301 | 65 ft | 71 kts | 69° |
| 2026-04-23 11:48 | 12.98973 | 80.16777 | 65 ft | 65 kts | 69° |
| 2026-04-23 11:48 | 12.99107 | 80.17142 | 65 ft | 42 kts | 68° |
| 2026-04-23 11:49 | 12.99171 | 80.17421 | 65 ft | 39 kts | 93° |
| 2026-04-23 11:49 | 12.99146 | 80.17611 | 65 ft | 14 kts | 101° |
| 2026-04-23 11:49 | 12.99143 | 80.17680 | 65 ft | 5 kts | 36° |
| 2026-04-23 11:49 | 12.99175 | 80.17691 | 65 ft | 2 kts | 357° |
| 2026-04-23 11:50 | 12.99205 | 80.17683 | 65 ft | 6 kts | 343° |
| 2026-04-23 11:50 | 12.99268 | 80.17660 | 65 ft | 12 kts | 338° |
| 2026-04-23 11:50 | 12.99287 | 80.17611 | 65 ft | 9 kts | 257° |
| 2026-04-23 11:50 | 12.99236 | 80.17481 | 65 ft | 40 kts | 249° |
| 2026-04-23 11:51 | 12.99058 | 80.17002 | 65 ft | 100 kts | 249° |
| 2026-04-23 11:51 | 12.98761 | 80.16210 | 65 ft | 136 kts | 249° |
| 2026-04-23 11:51 | 12.98400 | 80.15182 | 210 ft | 165 kts | 247° |
| 2026-04-23 11:51 | 12.97976 | 80.14035 | 597 ft | 178 kts | 244° |
| 2026-04-23 11:52 | 12.97537 | 80.12903 | 1332 ft | 166 kts | 243° |
| 2026-04-23 11:52 | 12.97292 | 80.11636 | 1409 ft | 202 kts | 275° |
| 2026-04-23 11:52 | 12.97865 | 80.10291 | 1787 ft | 216 kts | 311° |
| 2026-04-23 11:52 | 12.99100 | 80.09396 | 2091 ft | 232 kts | 343° |
| 2026-04-23 11:53 | 13.00823 | 80.09296 | 2197 ft | 260 kts | 17° |
| 2026-04-23 11:53 | 13.02419 | 80.10175 | 2776 ft | 266 kts | 44° |
| 2026-04-23 11:53 | 13.03769 | 80.11273 | 3695 ft | 264 kts | 34° |
| 2026-04-23 11:53 | 13.05432 | 80.12191 | 4589 ft | 266 kts | 26° |
| 2026-04-23 11:54 | 13.07181 | 80.12747 | 5447 ft | 269 kts | 14° |
| 2026-04-23 11:54 | 13.09043 | 80.13184 | 5987 ft | 280 kts | 13° |
| 2026-04-23 11:54 | 13.10961 | 80.13562 | 5975 ft | 281 kts | 11° |
| 2026-04-23 11:54 | 13.12855 | 80.13892 | 5965 ft | 270 kts | 11° |
| 2026-04-23 11:55 | 13.14706 | 80.14195 | 5976 ft | 267 kts | 10° |
| 2026-04-23 11:55 | 13.16567 | 80.14484 | 5974 ft | 268 kts | 10° |
| 2026-04-23 11:55 | 13.18443 | 80.14768 | 5995 ft | 274 kts | 9° |
| 2026-04-23 11:55 | 13.20345 | 80.15039 | 6520 ft | 280 kts | 6° |
| 2026-04-23 11:56 | 13.22261 | 80.15003 | 7560 ft | 275 kts | 359° |
| 2026-04-23 11:56 | 13.24206 | 80.14902 | 8356 ft | 280 kts | 360° |
| 2026-04-23 11:56 | 13.26107 | 80.14799 | 9223 ft | 280 kts | 360° |
| 2026-04-23 11:56 | 13.28069 | 80.14688 | 10017 ft | 284 kts | 359° |
| 2026-04-23 11:57 | 13.30153 | 80.14569 | 10255 ft | 312 kts | 359° |
| 2026-04-23 11:57 | 13.32378 | 80.14120 | 10491 ft | 343 kts | 341° |
| 2026-04-23 11:57 | 13.34557 | 80.13123 | 11402 ft | 347 kts | 339° |
| 2026-04-23 11:57 | 13.36809 | 80.12176 | 12297 ft | 352 kts | 340° |
| 2026-04-23 11:58 | 13.39075 | 80.11206 | 13162 ft | 358 kts | 339° |
| 2026-04-23 11:58 | 13.41382 | 80.10222 | 14003 ft | 364 kts | 339° |
| 2026-04-23 11:58 | 13.43707 | 80.09219 | 14827 ft | 369 kts | 338° |
| 2026-04-23 11:58 | 13.46095 | 80.08186 | 15656 ft | 374 kts | 338° |
| 2026-04-23 11:59 | 13.48530 | 80.07131 | 16441 ft | 381 kts | 337° |
| 2026-04-23 11:59 | 13.50995 | 80.06062 | 17276 ft | 386 kts | 337° |
| 2026-04-23 11:59 | 13.53511 | 80.04970 | 18103 ft | 391 kts | 336° |
| 2026-04-23 11:59 | 13.56026 | 80.03877 | 18890 ft | 398 kts | 336° |
| 2026-04-23 12:00 | 13.58608 | 80.02756 | 19722 ft | 403 kts | 336° |
| 2026-04-23 12:00 | 13.61222 | 80.01621 | 20477 ft | 408 kts | 335° |
| 2026-04-23 12:00 | 13.63846 | 80.00481 | 21205 ft | 414 kts | 335° |
| 2026-04-23 12:00 | 13.66541 | 79.99309 | 21910 ft | 419 kts | 335° |
| 2026-04-23 12:01 | 13.69236 | 79.98137 | 22599 ft | 423 kts | 335° |
| 2026-04-23 12:01 | 13.71989 | 79.96941 | 23228 ft | 429 kts | 334° |
| 2026-04-23 12:01 | 13.74783 | 79.95725 | 23827 ft | 435 kts | 334° |
| 2026-04-23 12:01 | 13.77593 | 79.94502 | 24453 ft | 439 kts | 334° |
| 2026-04-23 12:02 | 13.80407 | 79.93276 | 25036 ft | 443 kts | 333° |
| 2026-04-23 12:02 | 13.83279 | 79.92027 | 25584 ft | 448 kts | 333° |
| 2026-04-23 12:02 | 13.86187 | 79.90760 | 26160 ft | 451 kts | 333° |
| 2026-04-23 12:02 | 13.89121 | 79.89482 | 26662 ft | 456 kts | 333° |
| 2026-04-23 12:03 | 13.92058 | 79.88203 | 27211 ft | 458 kts | 333° |
| 2026-04-23 12:03 | 13.95029 | 79.86908 | 27635 ft | 463 kts | 333° |
| 2026-04-23 12:03 | 13.98006 | 79.85611 | 28100 ft | 467 kts | 332° |
| 2026-04-23 12:03 | 14.01038 | 79.84289 | 28517 ft | 471 kts | 332° |
| 2026-04-23 12:04 | 14.04087 | 79.82959 | 28959 ft | 474 kts | 332° |
| 2026-04-23 12:04 | 14.07151 | 79.81621 | 29298 ft | 479 kts | 332° |
| 2026-04-23 12:04 | 14.10230 | 79.80278 | 29719 ft | 482 kts | 332° |
| 2026-04-23 12:04 | 14.13365 | 79.78908 | 29997 ft | 487 kts | 332° |
| 2026-04-23 12:05 | 14.16526 | 79.77528 | 30386 ft | 490 kts | 332° |
| 2026-04-23 12:05 | 14.19664 | 79.76157 | 30724 ft | 494 kts | 332° |
| 2026-04-23 12:05 | 14.22871 | 79.74756 | 31016 ft | 499 kts | 332° |
| 2026-04-23 12:05 | 14.26121 | 79.73336 | 31457 ft | 500 kts | 332° |
| 2026-04-23 12:06 | 14.29306 | 79.71944 | 31921 ft | 500 kts | 332° |
| 2026-04-23 12:06 | 14.32555 | 79.70524 | 32342 ft | 502 kts | 332° |
| 2026-04-23 12:06 | 14.39020 | 79.67696 | 33383 ft | 500 kts | 331° |
| 2026-04-23 12:07 | 14.42221 | 79.66294 | 33769 ft | 498 kts | 331° |
| 2026-04-23 12:07 | 14.45422 | 79.64892 | 33735 ft | 495 kts | 331° |
| 2026-04-23 12:07 | 14.51756 | 79.62116 | 33753 ft | 492 kts | 331° |
| 2026-04-23 12:08 | 14.58130 | 79.59320 | 33756 ft | 495 kts | 331° |
| 2026-04-23 12:08 | 14.64496 | 79.56529 | 33747 ft | 494 kts | 331° |
| 2026-04-23 12:09 | 14.70866 | 79.53732 | 33740 ft | 494 kts | 330° |
| 2026-04-23 12:09 | 14.77212 | 79.50943 | 33741 ft | 495 kts | 330° |
| 2026-04-23 12:10 | 14.83568 | 79.48150 | 33745 ft | 494 kts | 331° |
| 2026-04-23 12:10 | 14.89951 | 79.45342 | 33746 ft | 495 kts | 330° |
| 2026-04-23 12:11 | 14.96310 | 79.42543 | 33741 ft | 495 kts | 331° |
| 2026-04-23 12:11 | 15.02667 | 79.39706 | 33751 ft | 496 kts | 330° |
| 2026-04-23 12:12 | 15.09047 | 79.36852 | 33754 ft | 493 kts | 330° |
| 2026-04-23 12:12 | 15.15259 | 79.34067 | 33757 ft | 492 kts | 330° |
| 2026-04-23 12:13 | 15.21565 | 79.31248 | 33763 ft | 495 kts | 330° |
| 2026-04-23 12:13 | 15.27949 | 79.28413 | 33767 ft | 494 kts | 330° |
| 2026-04-23 12:14 | 15.34302 | 79.25583 | 33768 ft | 492 kts | 330° |
| 2026-04-23 12:14 | 15.40632 | 79.22758 | 33766 ft | 494 kts | 329° |
| 2026-04-23 12:15 | 15.47005 | 79.19910 | 33779 ft | 495 kts | 329° |
| 2026-04-23 12:15 | 15.53352 | 79.17075 | 33781 ft | 494 kts | 329° |
| 2026-04-23 12:16 | 15.59688 | 79.14241 | 33787 ft | 494 kts | 329° |
| 2026-04-23 12:16 | 15.66061 | 79.11388 | 33802 ft | 494 kts | 329° |
| 2026-04-23 12:17 | 15.72383 | 79.08557 | 33823 ft | 494 kts | 329° |
| 2026-04-23 12:17 | 15.78740 | 79.05707 | 33846 ft | 495 kts | 329° |
| 2026-04-23 12:18 | 15.85092 | 79.02859 | 33872 ft | 494 kts | 329° |
| 2026-04-23 12:18 | 15.91390 | 79.00033 | 33897 ft | 491 kts | 329° |
| 2026-04-23 12:19 | 15.94530 | 78.98628 | 33890 ft | 478 kts | 329° |
| 2026-04-23 12:19 | 15.97551 | 78.97274 | 33863 ft | 464 kts | 328° |
| 2026-04-23 12:19 | 16.00489 | 78.95952 | 33352 ft | 461 kts | 328° |
| 2026-04-23 12:19 | 16.03481 | 78.94601 | 32566 ft | 464 kts | 329° |
| 2026-04-23 12:20 | 16.06453 | 78.93262 | 31896 ft | 465 kts | 329° |
| 2026-04-23 12:20 | 16.09434 | 78.91921 | 31304 ft | 464 kts | 329° |
| 2026-04-23 12:20 | 16.12286 | 78.90638 | 30721 ft | 463 kts | 329° |
| 2026-04-23 12:20 | 16.15232 | 78.89312 | 30057 ft | 463 kts | 329° |
| 2026-04-23 12:21 | 16.18207 | 78.87973 | 29511 ft | 459 kts | 329° |
| 2026-04-23 12:21 | 16.21117 | 78.86664 | 29005 ft | 455 kts | 329° |
| 2026-04-23 12:21 | 16.24051 | 78.85342 | 28477 ft | 451 kts | 329° |
| 2026-04-23 12:21 | 16.26900 | 78.84058 | 28028 ft | 446 kts | 330° |
| 2026-04-23 12:22 | 16.29759 | 78.82769 | 27537 ft | 442 kts | 330° |
| 2026-04-23 12:22 | 16.32601 | 78.81487 | 27059 ft | 437 kts | 330° |
| 2026-04-23 12:22 | 16.35369 | 78.80238 | 26519 ft | 435 kts | 330° |
| 2026-04-23 12:22 | 16.38168 | 78.78975 | 26073 ft | 430 kts | 330° |
| 2026-04-23 12:23 | 16.40888 | 78.77747 | 25597 ft | 426 kts | 331° |
| 2026-04-23 12:23 | 16.43594 | 78.76524 | 25126 ft | 422 kts | 331° |
| 2026-04-23 12:23 | 16.46302 | 78.75301 | 24590 ft | 420 kts | 332° |
| 2026-04-23 12:23 | 16.48963 | 78.74098 | 24131 ft | 416 kts | 332° |
| 2026-04-23 12:24 | 16.51629 | 78.72893 | 23675 ft | 411 kts | 332° |
| 2026-04-23 12:24 | 16.54238 | 78.71714 | 23161 ft | 408 kts | 332° |
| 2026-04-23 12:24 | 16.56854 | 78.70529 | 22674 ft | 404 kts | 333° |
| 2026-04-23 12:24 | 16.59417 | 78.69371 | 22187 ft | 399 kts | 333° |
| 2026-04-23 12:25 | 16.61965 | 78.68218 | 21496 ft | 396 kts | 333° |
| 2026-04-23 12:25 | 16.64502 | 78.67069 | 21095 ft | 389 kts | 334° |
| 2026-04-23 12:25 | 16.67004 | 78.65936 | 20589 ft | 387 kts | 334° |
| 2026-04-23 12:25 | 16.69479 | 78.64813 | 20059 ft | 385 kts | 334° |
| 2026-04-23 12:26 | 16.71924 | 78.63705 | 19625 ft | 380 kts | 334° |
| 2026-04-23 12:26 | 16.74333 | 78.62614 | 19134 ft | 378 kts | 335° |
| 2026-04-23 12:26 | 16.76774 | 78.61507 | 18692 ft | 374 kts | 335° |
| 2026-04-23 12:26 | 16.79156 | 78.60427 | 18233 ft | 370 kts | 335° |
| 2026-04-23 12:27 | 16.81518 | 78.59355 | 17792 ft | 367 kts | 336° |
| 2026-04-23 12:27 | 16.83838 | 78.58302 | 17339 ft | 364 kts | 336° |
| 2026-04-23 12:27 | 16.86188 | 78.57236 | 16971 ft | 359 kts | 336° |
| 2026-04-23 12:27 | 16.88466 | 78.56201 | 16505 ft | 357 kts | 336° |
| 2026-04-23 12:28 | 16.90735 | 78.55170 | 16121 ft | 354 kts | 336° |
| 2026-04-23 12:28 | 16.92992 | 78.54146 | 15869 ft | 345 kts | 337° |
| 2026-04-23 12:28 | 16.95173 | 78.53155 | 15857 ft | 330 kts | 337° |
| 2026-04-23 12:28 | 16.97224 | 78.52222 | 15838 ft | 315 kts | 337° |
| 2026-04-23 12:29 | 16.99250 | 78.51367 | 15695 ft | 306 kts | 345° |
| 2026-04-23 12:29 | 17.01349 | 78.51069 | 15438 ft | 300 kts | 359° |
| 2026-04-23 12:29 | 17.03432 | 78.51013 | 15132 ft | 299 kts | 359° |
| 2026-04-23 12:29 | 17.05535 | 78.50949 | 14676 ft | 301 kts | 359° |
| 2026-04-23 12:30 | 17.07632 | 78.50894 | 14374 ft | 297 kts | 359° |
| 2026-04-23 12:30 | 17.09677 | 78.50987 | 14014 ft | 295 kts | 12° |
| 2026-04-23 12:30 | 17.11567 | 78.51728 | 13732 ft | 291 kts | 32° |
| 2026-04-23 12:30 | 17.13103 | 78.53109 | 13312 ft | 292 kts | 52° |
| 2026-04-23 12:31 | 17.14046 | 78.54955 | 13023 ft | 289 kts | 73° |
| 2026-04-23 12:31 | 17.14339 | 78.57018 | 12785 ft | 283 kts | 84° |
| 2026-04-23 12:31 | 17.14485 | 78.59024 | 12763 ft | 269 kts | 84° |
| 2026-04-23 12:31 | 17.14595 | 78.60993 | 12284 ft | 276 kts | 85° |
| 2026-04-23 12:32 | 17.14664 | 78.63020 | 11837 ft | 276 kts | 88° |
| 2026-04-23 12:32 | 17.14680 | 78.65018 | 11486 ft | 275 kts | 88° |
| 2026-04-23 12:32 | 17.14697 | 78.67013 | 11169 ft | 273 kts | 88° |
| 2026-04-23 12:32 | 17.14715 | 78.68988 | 10814 ft | 273 kts | 88° |
| 2026-04-23 12:33 | 17.14734 | 78.70983 | 10517 ft | 270 kts | 88° |
| 2026-04-23 12:33 | 17.14724 | 78.72924 | 10189 ft | 269 kts | 89° |
| 2026-04-23 12:33 | 17.14691 | 78.74898 | 9907 ft | 265 kts | 90° |
| 2026-04-23 12:33 | 17.14660 | 78.76828 | 9568 ft | 265 kts | 88° |
| 2026-04-23 12:34 | 17.14999 | 78.78679 | 9197 ft | 264 kts | 63° |
| 2026-04-23 12:34 | 17.16147 | 78.80132 | 8931 ft | 260 kts | 35° |
| 2026-04-23 12:34 | 17.17833 | 78.80836 | 8539 ft | 265 kts | 7° |
| 2026-04-23 12:34 | 17.19660 | 78.80598 | 8217 ft | 268 kts | 339° |
| 2026-04-23 12:35 | 17.21193 | 78.79461 | 7934 ft | 271 kts | 314° |
| 2026-04-23 12:35 | 17.22377 | 78.77921 | 7653 ft | 270 kts | 309° |
| 2026-04-23 12:35 | 17.23186 | 78.76153 | 7349 ft | 272 kts | 278° |
| 2026-04-23 12:35 | 17.23240 | 78.74184 | 7100 ft | 271 kts | 270° |
| 2026-04-23 12:36 | 17.23233 | 78.72208 | 6772 ft | 272 kts | 271° |
| 2026-04-23 12:36 | 17.23226 | 78.70240 | 6451 ft | 273 kts | 270° |
| 2026-04-23 12:36 | 17.23210 | 78.68227 | 6137 ft | 275 kts | 270° |
| 2026-04-23 12:36 | 17.23192 | 78.66238 | 5784 ft | 276 kts | 270° |
| 2026-04-23 12:37 | 17.23170 | 78.64223 | 5425 ft | 278 kts | 270° |
| 2026-04-23 12:37 | 17.23145 | 78.62193 | 5077 ft | 279 kts | 270° |
| 2026-04-23 12:37 | 17.23119 | 78.60180 | 4729 ft | 275 kts | 270° |
| 2026-04-23 12:37 | 17.23094 | 78.58262 | 4383 ft | 258 kts | 269° |
| 2026-04-23 12:38 | 17.23070 | 78.56426 | 4093 ft | 241 kts | 269° |
| 2026-04-23 12:38 | 17.23047 | 78.54765 | 3814 ft | 219 kts | 269° |
| 2026-04-23 12:38 | 17.23025 | 78.53284 | 3571 ft | 189 kts | 269° |
| 2026-04-23 12:38 | 17.23008 | 78.51999 | 3318 ft | 169 kts | 269° |
| 2026-04-23 12:39 | 17.22993 | 78.50804 | 3049 ft | 156 kts | 269° |
| 2026-04-23 12:39 | 17.22979 | 78.49706 | 2836 ft | 151 kts | 269° |
| 2026-04-23 12:39 | 17.22959 | 78.48615 | 2670 ft | 152 kts | 267° |
| 2026-04-23 12:39 | 17.22933 | 78.47503 | 2486 ft | 152 kts | 268° |
| 2026-04-23 12:40 | 17.22916 | 78.46424 | 2260 ft | 147 kts | 268° |
| 2026-04-23 12:40 | 17.22918 | 78.45341 | 2082 ft | 148 kts | 269° |
| 2026-04-23 12:40 | 17.22902 | 78.44364 | 2041 ft | 108 kts | 269° |
| 2026-04-23 12:40 | 17.22892 | 78.43775 | 2031 ft | 69 kts | 269° |
| 2026-04-23 12:41 | 17.22929 | 78.43436 | 2019 ft | 29 kts | 296° |
| 2026-04-23 12:41 | 17.23016 | 78.43276 | 2015 ft | 20 kts | 301° |
| 2026-04-23 12:41 | 17.23106 | 78.43178 | 2013 ft | 17 kts | 342° |
| 2026-04-23 12:41 | 17.23214 | 78.43166 | 2013 ft | 13 kts | 358° |
| 2026-04-23 12:42 | 17.23303 | 78.43162 | 2013 ft | 10 kts | 348° |
| 2026-04-23 12:42 | 17.23330 | 78.43125 | 2012 ft | 6 kts | 283° |
| 2026-04-23 12:42 | 17.23332 | 78.43073 | 2010 ft | 8 kts | 269° |
| 2026-04-23 12:42 | 17.23331 | 78.43005 | 2007 ft | 10 kts | 269° |
| 2026-04-23 12:43 | 17.23337 | 78.42923 | 2004 ft | 10 kts | 294° |
| 2026-04-23 12:43 | 17.23401 | 78.42898 | 2002 ft | 10 kts | 359° |
| 2026-04-23 12:43 | 17.23429 | 78.42897 | 2002 ft | 0 kts | 358° |